Terminal Aerodrome Forecast
Issued by NWS

Home | Current Version | Previous Version | Text Only | Print | Product List | Glossary On
Versions: 1 2 3 4 5 6 7 8 9 10 11 12 13 14 15
330
FTUS42 KFFC 261148 AAA
TAFPDK
TAF AMD
KPDK 261148Z 2612/2712 13003KT P6SM SCT020 BKN060
     FM261400 14006KT P6SM BKN060
     FM261900 16007KT P6SM VCSH SCT045
      TEMPO 2623/2703 6SM -TSRA OVC035CB
     FM270400 21002KT 6SM BR VCSH BKN050 BKN100
     FM270900 20002KT P6SM OVC100=

USA.gov is the U.S. government's official web portal to all federal, state and local government web resources and services.